Schedule Details


Flight Number: CTN465
Departure: Zurich (LSZH) at 20:05
Arrival: Franjo Tudman (LDZA) at 21:30
Route: DEGES?N871?MADEB?N606?ELMEM?L607?GEDSO?DCT?VEKEN?DCT?ARGOM

Weather Information
LSZH 172220Z AUTO 34003KT CAVOK 19/15 Q1014 NOSIG
LDZA 172200Z VRB02KT CAVOK 20/15 Q1017 NOSIG
Schedule Frequency

Route Map